createdAt,value
2017-11-17T00:01:06.685Z,36.10
2017-11-17T00:03:34.225Z,35.30
2017-11-17T00:06:02.547Z,36.17
2017-11-17T00:08:30.084Z,33.10
2017-11-17T00:10:57.642Z,35.27
2017-11-17T00:13:25.175Z,32.70
2017-11-17T00:15:53.516Z,34.53
2017-11-17T00:18:21.051Z,31.30
2017-11-17T00:20:48.604Z,34.07
2017-11-17T00:23:16.147Z,31.23
2017-11-17T00:25:44.477Z,35.20
2017-11-17T00:28:12.016Z,31.00
2017-11-17T00:30:39.575Z,35.07
2017-11-17T00:33:07.108Z,31.70
2017-11-17T00:35:34.650Z,32.17
2017-11-17T00:38:02.982Z,34.37
2017-11-17T00:40:30.511Z,29.80
2017-11-17T00:42:58.074Z,33.30
2017-11-17T00:45:25.621Z,37.17
2017-11-17T00:47:53.959Z,35.80
2017-11-17T00:50:21.504Z,36.33
2017-11-17T00:52:49.063Z,33.03
2017-11-17T00:55:16.599Z,37.30
2017-11-17T00:57:44.163Z,37.03
2017-11-17T01:00:11.698Z,33.57
2017-11-17T01:02:39.263Z,32.00
2017-11-17T01:05:06.800Z,33.73
2017-11-17T01:07:35.131Z,34.93
2017-11-17T01:10:02.659Z,30.07
2017-11-17T01:12:30.229Z,29.93
2017-11-17T01:14:57.775Z,34.67
2017-11-17T01:17:26.096Z,31.30
2017-11-17T01:19:53.633Z,31.00
2017-11-17T01:22:21.229Z,33.17
2017-11-17T01:24:48.790Z,30.67
2017-11-17T01:27:16.330Z,32.27
2017-11-17T01:29:43.904Z,31.60
2017-11-17T01:32:11.447Z,31.20
2017-11-17T01:34:39.007Z,33.40
2017-11-17T01:37:06.544Z,35.60
2017-11-17T01:39:34.103Z,35.07
2017-11-17T01:42:01.648Z,32.90
2017-11-17T01:44:29.975Z,35.27
2017-11-17T01:46:57.508Z,35.53
2017-11-17T01:49:25.073Z,30.07
2017-11-17T01:51:52.616Z,32.40
2017-11-17T01:54:20.171Z,33.00
2017-11-17T01:56:47.715Z,32.50
2017-11-17T01:59:16.041Z,38.07
2017-11-17T02:01:43.566Z,34.73
2017-11-17T02:04:11.137Z,33.10
2017-11-17T02:06:38.679Z,32.40
2017-11-17T02:09:07.004Z,32.80
2017-11-17T02:11:34.545Z,33.43
2017-11-17T02:14:02.120Z,31.00
2017-11-17T02:16:30.416Z,28.87
2017-11-17T02:18:57.976Z,33.00
2017-11-17T02:21:25.509Z,31.67
2017-11-17T02:23:53.066Z,32.17
2017-11-17T02:26:20.602Z,28.70
2017-11-17T02:28:48.136Z,29.00
2017-11-17T02:31:16.462Z,35.10
2017-11-17T02:33:44.002Z,32.00
2017-11-17T02:36:11.562Z,30.20
2017-11-17T02:38:39.096Z,32.67
2017-11-17T02:41:07.423Z,29.97
2017-11-17T02:43:34.963Z,30.27
2017-11-17T02:46:02.517Z,28.37
2017-11-17T02:48:30.049Z,29.43
2017-11-17T02:50:57.614Z,32.50
2017-11-17T02:53:25.915Z,30.93
2017-11-17T02:55:53.480Z,28.23
2017-11-17T02:58:21.029Z,30.90
2017-11-17T03:00:48.591Z,31.90
2017-11-17T03:03:16.119Z,29.70
2017-11-17T03:05:43.666Z,29.70
2017-11-17T03:08:11.209Z,30.10
2017-11-17T03:10:38.768Z,33.30
2017-11-17T03:13:06.303Z,31.17
2017-11-17T03:15:33.862Z,29.50
2017-11-17T03:18:01.406Z,31.07
2017-11-17T03:20:28.969Z,32.87
2017-11-17T03:22:56.517Z,29.47
2017-11-17T03:25:24.843Z,30.03
2017-11-17T03:27:53.142Z,31.10
2017-11-17T03:30:20.683Z,31.40
2017-11-17T03:32:48.240Z,30.17
2017-11-17T03:35:15.777Z,32.30
2017-11-17T03:37:43.340Z,31.70
2017-11-17T03:40:10.870Z,32.67
2017-11-17T03:42:39.196Z,33.30
2017-11-17T03:45:06.728Z,33.27
2017-11-17T03:47:34.294Z,33.83
2017-11-17T03:50:01.840Z,29.90
2017-11-17T03:52:29.395Z,32.73
2017-11-17T03:54:56.946Z,29.23
2017-11-17T03:57:25.281Z,34.10
2017-11-17T03:59:52.829Z,32.07
2017-11-17T04:02:20.381Z,31.53
2017-11-17T04:04:47.953Z,30.70
2017-11-17T04:07:16.276Z,30.67
2017-11-17T04:09:44.584Z,30.07
2017-11-17T04:12:12.144Z,31.27
2017-11-17T04:14:39.736Z,30.33
2017-11-17T04:17:07.300Z,33.27
2017-11-17T04:19:34.846Z,31.80
2017-11-17T04:22:02.408Z,30.03
2017-11-17T04:24:29.954Z,31.40
2017-11-17T04:26:57.516Z,32.23
2017-11-17T04:29:25.049Z,29.37
2017-11-17T04:31:52.616Z,27.13
2017-11-17T04:34:20.158Z,29.00
2017-11-17T04:36:48.500Z,28.70
2017-11-17T04:39:16.032Z,29.17
2017-11-17T04:41:43.576Z,32.30
2017-11-17T04:44:11.133Z,30.43
2017-11-17T04:46:38.667Z,31.37
2017-11-17T04:49:06.992Z,30.10
2017-11-17T04:51:34.528Z,26.20
2017-11-17T04:54:02.089Z,26.53
2017-11-17T04:56:29.612Z,24.23
2017-11-17T04:58:57.941Z,24.50
2017-11-17T05:01:25.475Z,25.03
2017-11-17T05:03:53.024Z,24.17
2017-11-17T05:06:21.332Z,23.80
2017-11-17T05:08:48.880Z,22.47
2017-11-17T05:11:16.407Z,23.63
2017-11-17T05:13:44.738Z,24.60
2017-11-17T05:16:12.278Z,24.73
2017-11-17T05:18:39.827Z,23.97
2017-11-17T05:21:07.369Z,28.10
2017-11-17T05:23:35.695Z,22.60
2017-11-17T05:26:03.230Z,24.47
2017-11-17T05:28:30.788Z,28.10
2017-11-17T05:30:58.315Z,28.23
2017-11-17T05:33:25.875Z,31.53
2017-11-17T05:35:53.408Z,29.00
2017-11-17T05:38:21.748Z,26.17
2017-11-17T05:40:49.281Z,30.87
2017-11-17T05:43:17.593Z,26.20
2017-11-17T05:45:45.157Z,25.70
2017-11-17T05:48:12.711Z,24.60
2017-11-17T05:50:40.276Z,27.40
2017-11-17T05:53:07.808Z,25.37
2017-11-17T05:55:36.137Z,27.27
2017-11-17T05:58:03.669Z,24.50
2017-11-17T06:00:31.236Z,25.00
2017-11-17T06:02:58.783Z,21.90
2017-11-17T06:05:26.358Z,21.37
2017-11-17T06:07:53.883Z,21.27
2017-11-17T06:10:22.205Z,19.90
2017-11-17T06:12:49.733Z,17.50
2017-11-17T06:15:17.291Z,17.67
2017-11-17T06:17:44.855Z,18.57
2017-11-17T06:20:12.411Z,17.73
2017-11-17T06:22:39.943Z,18.63
2017-11-17T06:25:08.277Z,17.83
2017-11-17T06:27:35.812Z,19.97
2017-11-17T06:30:03.369Z,18.53
2017-11-17T06:32:30.908Z,17.40
2017-11-17T06:34:59.238Z,17.10
2017-11-17T06:37:26.783Z,16.33
2017-11-17T06:39:54.323Z,18.13
2017-11-17T06:42:21.888Z,22.70
2017-11-17T06:44:49.424Z,18.93
2017-11-17T06:47:17.753Z,19.93
2017-11-17T06:49:45.285Z,18.80
2017-11-17T06:52:12.845Z,21.47
2017-11-17T06:54:40.385Z,24.30
2017-11-17T06:57:08.712Z,20.47
2017-11-17T06:59:36.244Z,20.83
2017-11-17T07:02:03.791Z,19.63
2017-11-17T07:04:32.083Z,21.03
2017-11-17T07:06:59.643Z,23.27
2017-11-17T07:09:27.176Z,24.10
2017-11-17T07:11:55.496Z,21.20
2017-11-17T07:14:23.029Z,20.43
2017-11-17T07:16:50.593Z,21.20
2017-11-17T07:19:18.123Z,20.73
2017-11-17T07:21:46.453Z,19.00
2017-11-17T07:24:13.988Z,21.07
2017-11-17T07:26:41.548Z,21.60
2017-11-17T07:29:09.083Z,20.20
2017-11-17T07:31:37.400Z,18.60
2017-11-17T07:34:04.927Z,19.73
2017-11-17T07:36:33.256Z,19.90
2017-11-17T07:39:00.792Z,21.77
2017-11-17T07:41:28.378Z,21.73
2017-11-17T07:43:55.919Z,22.40
2017-11-17T07:46:23.448Z,24.40
2017-11-17T07:48:51.772Z,23.57
2017-11-17T07:51:20.074Z,22.77
2017-11-17T07:53:47.636Z,21.30
2017-11-17T07:56:15.168Z,21.80
2017-11-17T07:58:42.717Z,22.00
2017-11-17T08:01:11.046Z,20.17
2017-11-17T08:03:39.389Z,19.40
2017-11-17T08:06:06.926Z,20.20
2017-11-17T08:08:34.483Z,18.13
2017-11-17T08:11:02.012Z,19.10
2017-11-17T08:13:30.343Z,20.10
2017-11-17T08:15:57.879Z,23.07
2017-11-17T08:18:31.372Z,20.90
2017-11-17T08:20:58.904Z,22.20
2017-11-17T08:23:27.277Z,20.47
2017-11-17T08:25:55.646Z,20.93
2017-11-17T08:28:23.993Z,18.57
2017-11-17T08:30:51.532Z,18.40
2017-11-17T08:33:19.088Z,17.00
2017-11-17T08:35:46.624Z,19.50
2017-11-17T08:38:14.969Z,22.00
2017-11-17T08:40:42.512Z,19.97
2017-11-17T08:43:10.044Z,20.83
2017-11-17T08:45:37.607Z,18.83
2017-11-17T08:48:05.135Z,20.53
2017-11-17T08:50:33.456Z,18.73
2017-11-17T08:53:01.000Z,21.40
2017-11-17T08:55:28.558Z,19.80
2017-11-17T08:57:56.133Z,21.03
2017-11-17T09:00:23.682Z,19.53
2017-11-17T09:02:51.220Z,22.03
2017-11-17T09:05:19.543Z,18.60
2017-11-17T09:07:47.076Z,20.40
2017-11-17T09:10:14.634Z,19.83
2017-11-17T09:12:42.164Z,18.93
2017-11-17T09:15:10.492Z,19.00
2017-11-17T09:17:38.020Z,18.77
2017-11-17T09:20:06.332Z,18.57
2017-11-17T09:22:33.863Z,18.63
2017-11-17T09:25:01.419Z,18.50
2017-11-17T09:27:28.957Z,19.73
2017-11-17T09:29:57.280Z,18.90
2017-11-17T09:32:24.816Z,18.30
2017-11-17T09:34:52.368Z,19.80
2017-11-17T09:37:20.673Z,19.70
2017-11-17T09:39:48.240Z,20.90
2017-11-17T09:42:15.793Z,18.17
2017-11-17T09:44:43.331Z,21.20
2017-11-17T09:47:10.888Z,21.87
2017-11-17T09:49:38.440Z,21.23
2017-11-17T09:52:06.763Z,20.27
2017-11-17T09:54:34.297Z,21.17
2017-11-17T09:57:01.864Z,19.87
2017-11-17T09:59:29.402Z,22.20
2017-11-17T10:01:57.725Z,22.30
2017-11-17T10:04:25.255Z,24.17
2017-11-17T10:06:52.816Z,22.67
2017-11-17T10:09:20.343Z,19.53
2017-11-17T10:11:48.660Z,19.83
2017-11-17T10:14:16.188Z,19.50
2017-11-17T10:16:44.510Z,20.40
2017-11-17T10:19:12.039Z,17.77
2017-11-17T10:21:39.600Z,20.70
2017-11-17T10:24:07.137Z,18.73
2017-11-17T10:26:35.459Z,20.03
2017-11-17T10:29:02.992Z,21.03
2017-11-17T10:31:30.570Z,21.07
2017-11-17T10:33:58.100Z,24.47
2017-11-17T10:36:26.415Z,21.93
2017-11-17T10:38:53.947Z,21.97
2017-11-17T10:41:21.511Z,21.80
2017-11-17T10:43:49.037Z,20.20
2017-11-17T10:46:16.568Z,20.73
2017-11-17T10:48:44.117Z,20.13
2017-11-17T10:51:11.656Z,20.17
2017-11-17T10:53:39.212Z,19.53
2017-11-17T10:56:06.740Z,19.90
2017-11-17T10:58:34.296Z,24.10
2017-11-17T11:01:01.827Z,19.87
2017-11-17T11:03:29.382Z,22.83
2017-11-17T11:05:56.917Z,22.63
2017-11-17T11:08:24.480Z,21.57
2017-11-17T11:10:57.744Z,21.00
2017-11-17T11:13:26.078Z,23.50
2017-11-17T11:15:53.603Z,22.03
2017-11-17T11:18:21.157Z,22.70
2017-11-17T11:20:48.692Z,21.20
2017-11-17T11:23:17.025Z,19.57
2017-11-17T11:25:45.323Z,21.57
2017-11-17T11:28:12.879Z,22.40
2017-11-17T11:30:40.412Z,19.67
2017-11-17T11:33:07.971Z,20.53
2017-11-17T11:35:35.500Z,20.50
2017-11-17T11:38:03.828Z,20.50
2017-11-17T11:40:31.351Z,21.63
2017-11-17T11:42:58.881Z,20.47
2017-11-17T11:45:27.255Z,20.60
2017-11-17T11:47:55.563Z,18.30
2017-11-17T11:50:23.124Z,20.83
2017-11-17T11:52:50.656Z,20.60
2017-11-17T11:55:18.976Z,20.03
2017-11-17T11:57:46.506Z,17.43
2017-11-17T12:00:14.832Z,17.00
2017-11-17T12:02:42.372Z,18.30
2017-11-17T12:05:09.927Z,20.57
2017-11-17T12:07:37.458Z,18.87
2017-11-17T12:10:05.776Z,19.30
2017-11-17T12:12:33.315Z,18.03
2017-11-17T12:15:00.877Z,17.47
2017-11-17T12:17:28.408Z,17.10
2017-11-17T12:19:56.744Z,19.70
2017-11-17T12:22:24.273Z,21.63
2017-11-17T12:24:51.828Z,18.33
2017-11-17T12:27:19.363Z,20.13
2017-11-17T12:29:47.685Z,19.83
2017-11-17T12:32:15.215Z,19.90
2017-11-17T12:34:42.772Z,20.30
2017-11-17T12:37:11.070Z,19.93
2017-11-17T12:39:38.634Z,21.90
2017-11-17T12:42:06.168Z,21.27
2017-11-17T12:44:34.493Z,20.17
2017-11-17T12:47:02.020Z,20.10
2017-11-17T12:49:29.551Z,19.87
2017-11-17T12:51:57.876Z,18.87
2017-11-17T12:54:25.413Z,19.57
2017-11-17T12:56:52.955Z,18.27
2017-11-17T12:59:21.248Z,20.30
2017-11-17T13:01:48.812Z,19.37
2017-11-17T13:04:16.347Z,20.30
2017-11-17T13:06:44.663Z,19.60
2017-11-17T13:09:12.192Z,18.97
2017-11-17T13:11:40.513Z,19.27
2017-11-17T13:14:08.047Z,20.87
2017-11-17T13:16:35.599Z,20.90
2017-11-17T13:19:03.136Z,19.30
2017-11-17T13:21:31.475Z,18.33
2017-11-17T13:23:59.003Z,20.90
2017-11-17T13:26:26.560Z,19.03
2017-11-17T13:28:54.092Z,19.40
2017-11-17T13:31:22.426Z,19.13
2017-11-17T13:33:49.962Z,19.83
2017-11-17T13:36:17.520Z,19.80
2017-11-17T13:38:45.052Z,19.50
2017-11-17T13:41:13.374Z,20.17
2017-11-17T13:43:40.911Z,19.53
2017-11-17T13:46:08.468Z,22.13
2017-11-17T13:48:35.999Z,19.57
2017-11-17T13:51:03.559Z,19.90
2017-11-17T13:53:31.087Z,22.60
2017-11-17T13:55:58.657Z,20.23
2017-11-17T13:58:27.698Z,20.97
2017-11-17T14:00:55.228Z,21.67
2017-11-17T14:03:22.796Z,20.50
2017-11-17T14:05:51.099Z,21.00
2017-11-17T14:08:18.655Z,19.80
2017-11-17T14:10:46.192Z,19.20
2017-11-17T14:13:14.520Z,18.07
2017-11-17T14:15:42.048Z,18.27
2017-11-17T14:18:09.614Z,19.20
2017-11-17T14:20:37.152Z,19.60
2017-11-17T14:23:05.477Z,18.97
2017-11-17T14:25:33.023Z,17.87
2017-11-17T14:28:00.580Z,18.63
2017-11-17T14:30:28.111Z,18.30
2017-11-17T14:32:56.431Z,19.87
2017-11-17T14:35:23.964Z,18.20
2017-11-17T14:37:51.528Z,17.80
2017-11-17T14:40:19.060Z,18.67
2017-11-17T14:42:47.390Z,17.17
2017-11-17T14:45:14.936Z,16.83
2017-11-17T14:47:42.493Z,16.83
2017-11-17T14:50:10.033Z,16.87
2017-11-17T14:52:38.365Z,17.83
2017-11-17T14:55:05.901Z,16.63
2017-11-17T14:57:33.451Z,19.73
2017-11-17T15:00:01.012Z,15.90
2017-11-17T15:02:28.547Z,16.93
2017-11-17T15:04:56.869Z,17.30
2017-11-17T15:07:24.422Z,18.43
2017-11-17T15:09:51.981Z,18.00
2017-11-17T15:12:19.515Z,16.67
2017-11-17T15:14:47.076Z,17.07
2017-11-17T15:17:14.625Z,19.80
2017-11-17T15:19:42.958Z,16.80
2017-11-17T15:22:10.504Z,16.80
2017-11-17T15:24:38.073Z,16.43
2017-11-17T15:27:05.613Z,15.73
2017-11-17T15:29:33.177Z,16.70
2017-11-17T15:32:00.708Z,16.53
2017-11-17T15:34:28.280Z,15.03
2017-11-17T15:36:55.819Z,16.30
2017-11-17T15:39:24.148Z,17.57
2017-11-17T15:41:52.460Z,16.90
2017-11-17T15:44:20.028Z,16.87
2017-11-17T15:46:48.350Z,18.03
2017-11-17T15:49:15.913Z,17.67
2017-11-17T15:51:43.469Z,16.67
2017-11-17T15:54:11.044Z,17.50
2017-11-17T15:56:39.356Z,17.90
2017-11-17T15:59:10.756Z,19.20
2017-11-17T16:01:38.341Z,22.13
2017-11-17T16:04:05.919Z,20.17
2017-11-17T16:06:35.523Z,19.93
2017-11-17T16:09:03.060Z,21.20
2017-11-17T16:11:30.809Z,19.93
2017-11-17T16:13:58.344Z,19.47
2017-11-17T16:16:25.908Z,19.57
2017-11-17T16:18:53.602Z,18.60
2017-11-17T16:21:21.255Z,17.67
2017-11-17T16:23:48.817Z,17.27
2017-11-17T16:26:16.382Z,18.23
2017-11-17T16:28:43.992Z,18.20
2017-11-17T16:31:12.412Z,20.87
2017-11-17T16:33:40.439Z,18.80
2017-11-17T16:36:09.276Z,18.77
2017-11-17T16:38:37.104Z,21.97
2017-11-17T16:41:04.839Z,23.47
2017-11-17T16:43:32.456Z,22.33
2017-11-17T16:46:00.248Z,20.37
2017-11-17T16:48:27.845Z,19.27
2017-11-17T16:50:55.411Z,20.33
2017-11-17T16:53:23.717Z,21.67
2017-11-17T16:55:51.276Z,21.33
2017-11-17T16:58:18.805Z,20.93
2017-11-17T17:00:47.151Z,20.93
2017-11-17T17:03:14.688Z,19.57
2017-11-17T17:05:42.223Z,20.67
2017-11-17T17:08:09.804Z,21.10
2017-11-17T17:10:37.332Z,22.70
2017-11-17T17:13:05.662Z,23.03
2017-11-17T17:15:33.202Z,22.87
2017-11-17T17:18:01.012Z,23.53
2017-11-17T17:20:28.684Z,21.47
2017-11-17T17:22:56.235Z,23.10
2017-11-17T17:25:23.774Z,23.17
2017-11-17T17:27:51.364Z,22.63
2017-11-17T17:30:19.675Z,21.07
2017-11-17T17:32:47.242Z,23.00
2017-11-17T17:35:14.768Z,21.10
2017-11-17T17:37:43.106Z,22.90
2017-11-17T17:40:10.650Z,25.23
2017-11-17T17:42:38.210Z,23.50
2017-11-17T17:45:05.769Z,22.50
2017-11-17T17:47:34.109Z,23.20
2017-11-17T17:50:02.535Z,24.40
2017-11-17T17:52:30.410Z,25.57
2017-11-17T17:54:58.429Z,24.57
2017-11-17T17:57:26.040Z,24.33
2017-11-17T17:59:53.567Z,24.90
2017-11-17T18:02:21.131Z,23.53
2017-11-17T18:04:48.676Z,25.57
2017-11-17T18:07:16.217Z,25.23
2017-11-17T18:09:44.545Z,21.67
2017-11-17T18:12:12.081Z,23.17
2017-11-17T18:14:39.994Z,23.70
2017-11-17T18:17:07.536Z,23.03
2017-11-17T18:19:35.102Z,25.13
2017-11-17T18:22:02.663Z,23.23
2017-11-17T18:24:30.217Z,23.70
2017-11-17T18:26:57.754Z,22.70
2017-11-17T18:29:25.309Z,27.27
2017-11-17T18:31:52.862Z,24.00
2017-11-17T18:34:20.757Z,23.83
2017-11-17T18:36:48.335Z,23.40
2017-11-17T18:39:15.924Z,24.47
2017-11-17T18:41:44.288Z,23.00
2017-11-17T18:44:11.824Z,25.47
2017-11-17T18:46:39.382Z,26.30
2017-11-17T18:49:06.944Z,25.43
2017-11-17T18:51:34.480Z,27.27
2017-11-17T18:54:02.049Z,23.43
2017-11-17T18:56:29.599Z,21.80
2017-11-17T18:58:57.156Z,20.43
2017-11-17T19:01:24.767Z,20.97
2017-11-17T19:03:52.355Z,21.20
2017-11-17T19:06:20.661Z,20.50
2017-11-17T19:08:48.264Z,21.57
2017-11-17T19:11:15.786Z,20.60
2017-11-17T19:13:43.354Z,20.80
2017-11-17T19:16:10.887Z,20.70
2017-11-17T19:18:38.430Z,21.87
2017-11-17T19:21:06.752Z,24.10
2017-11-17T19:23:34.289Z,22.90
2017-11-17T19:26:01.842Z,22.80
2017-11-17T19:28:30.141Z,23.40
2017-11-17T19:30:57.731Z,25.37
2017-11-17T19:33:25.289Z,25.67
2017-11-17T19:35:52.892Z,21.90
2017-11-17T19:38:20.396Z,23.93
2017-11-17T19:40:47.976Z,23.40
2017-11-17T19:43:15.518Z,23.83
2017-11-17T19:45:43.076Z,23.10
2017-11-17T19:48:10.612Z,23.93
2017-11-17T19:50:38.941Z,23.63
2017-11-17T19:53:06.483Z,23.50
2017-11-17T19:55:34.040Z,23.30
2017-11-17T19:58:01.577Z,23.87
2017-11-17T20:00:29.172Z,23.73
2017-11-17T20:02:56.709Z,24.00
2017-11-17T20:05:25.043Z,24.03
2017-11-17T20:07:53.341Z,22.70
2017-11-17T20:10:20.887Z,27.20
2017-11-17T20:12:49.218Z,25.23
2017-11-17T20:15:16.752Z,27.40
2017-11-17T20:17:44.306Z,25.57
2017-11-17T20:20:11.845Z,26.17
2017-11-17T20:22:40.173Z,25.93
2017-11-17T20:25:07.717Z,26.83
2017-11-17T20:27:35.284Z,30.00
2017-11-17T20:30:02.821Z,26.77
2017-11-17T20:32:30.380Z,26.23
2017-11-17T20:34:57.987Z,31.13
2017-11-17T20:37:25.555Z,29.50
2017-11-17T20:39:53.092Z,28.17
2017-11-17T20:42:20.644Z,31.93
2017-11-17T20:44:48.172Z,28.50
2017-11-17T20:47:15.727Z,27.10
2017-11-17T20:49:43.329Z,30.03
2017-11-17T20:52:10.893Z,27.63
2017-11-17T20:54:38.446Z,28.33
2017-11-17T20:57:06.767Z,28.40
2017-11-17T20:59:35.069Z,28.33
2017-11-17T21:02:02.625Z,26.50
2017-11-17T21:04:30.163Z,28.30
2017-11-17T21:06:58.488Z,28.67
2017-11-17T21:09:26.019Z,28.90
2017-11-17T21:11:53.583Z,28.50
2017-11-17T21:14:21.116Z,28.23
2017-11-17T21:16:48.648Z,26.20
2017-11-17T21:19:24.705Z,26.03
2017-11-17T21:21:52.237Z,25.20
2017-11-17T21:24:19.787Z,23.90
2017-11-17T21:26:47.325Z,29.97
2017-11-17T21:29:15.639Z,29.67
2017-11-17T21:31:43.179Z,30.00
2017-11-17T21:34:10.740Z,30.80
2017-11-17T21:36:38.342Z,28.47
2017-11-17T21:39:05.887Z,29.90
2017-11-17T21:41:33.415Z,27.30
2017-11-17T21:44:00.983Z,32.03
2017-11-17T21:46:28.565Z,27.53
2017-11-17T21:48:56.120Z,24.10
2017-11-17T21:51:23.675Z,24.37
2017-11-17T21:53:51.231Z,29.00
2017-11-17T21:56:18.771Z,27.40
2017-11-17T21:58:46.335Z,29.07
2017-11-17T22:01:13.901Z,29.40
2017-11-17T22:03:41.462Z,27.87
2017-11-17T22:06:08.997Z,34.23
2017-11-17T22:08:37.352Z,33.10
2017-11-17T22:11:07.615Z,36.10
2017-11-17T22:13:37.684Z,34.23
2017-11-17T22:16:14.008Z,33.93
2017-11-17T22:18:49.279Z,34.47
2017-11-17T22:21:18.579Z,32.10
2017-11-17T22:23:50.980Z,37.90
2017-11-17T22:26:23.709Z,33.10
2017-11-17T22:28:51.276Z,33.80
2017-11-17T22:52:22.356Z,36.10
2017-11-17T22:54:50.025Z,37.00
2017-11-17T22:57:17.573Z,39.97
2017-11-17T22:59:45.976Z,38.10
2017-11-17T23:02:13.947Z,35.27
2017-11-17T23:04:41.691Z,35.00
2017-11-17T23:07:09.554Z,36.67
2017-11-17T23:09:37.194Z,33.17
2017-11-17T23:12:04.773Z,32.83
2017-11-17T23:14:32.375Z,32.10
2017-11-17T23:17:00.005Z,32.23
2017-11-17T23:19:28.464Z,30.37
2017-11-17T23:21:56.700Z,30.53
2017-11-17T23:24:24.367Z,28.60
2017-11-17T23:26:51.939Z,31.27
2017-11-17T23:29:19.475Z,26.40
2017-11-17T23:31:47.317Z,29.50
2017-11-17T23:34:14.970Z,30.70
2017-11-17T23:36:49.672Z,31.90
2017-11-17T23:39:18.356Z,30.00
2017-11-17T23:41:46.012Z,30.73
2017-11-17T23:44:14.326Z,29.40
2017-11-17T23:46:41.892Z,30.40
2017-11-17T23:49:09.551Z,30.90
2017-11-17T23:51:37.376Z,30.23
2017-11-17T23:54:05.951Z,30.60
2017-11-17T23:56:35.508Z,30.90
2017-11-17T23:59:03.251Z,28.93
